createdAt,value
2018-09-08T00:03:37.132Z,98230.00
2018-09-08T00:07:39.330Z,98236.00
2018-09-08T00:11:41.505Z,98233.00
2018-09-08T00:15:49.629Z,98224.00
2018-09-08T00:19:57.560Z,98232.00
2018-09-08T00:24:05.484Z,98226.00
2018-09-08T00:28:12.508Z,98228.00
2018-09-08T00:32:14.794Z,98226.00
2018-09-08T00:36:17.436Z,98223.00
2018-09-08T00:40:19.595Z,98226.00
2018-09-08T00:44:21.778Z,98223.00
2018-09-08T00:48:23.971Z,98225.00
2018-09-08T00:52:26.151Z,98229.00
2018-09-08T00:56:28.474Z,98232.00
2018-09-08T01:00:30.819Z,98235.00
2018-09-08T01:04:33.063Z,98232.00
2018-09-08T01:08:35.291Z,98228.00
2018-09-08T01:12:37.427Z,98236.00
2018-09-08T01:16:39.686Z,98236.00
2018-09-08T01:20:41.843Z,98234.00
2018-09-08T01:24:44.172Z,98240.00
2018-09-08T01:28:46.627Z,98238.00
2018-09-08T01:32:48.830Z,98244.00
2018-09-08T01:36:51.046Z,98241.00
2018-09-08T01:40:53.246Z,98242.00
2018-09-08T01:44:55.423Z,98246.00
2018-09-08T01:48:57.589Z,98248.00
2018-09-08T01:52:59.800Z,98253.00
2018-09-08T01:57:02.014Z,98251.00
2018-09-08T02:01:04.534Z,98250.00
2018-09-08T02:05:07.062Z,98257.00
2018-09-08T02:09:09.653Z,98255.00
2018-09-08T02:13:12.134Z,98255.00
2018-09-08T02:17:14.282Z,98249.00
2018-09-08T02:21:16.494Z,98247.00
2018-09-08T02:25:18.711Z,98250.00
2018-09-08T02:29:20.929Z,98251.00
2018-09-08T02:33:23.133Z,98254.00
2018-09-08T02:37:25.308Z,98259.00
2018-09-08T02:41:27.467Z,98255.00
2018-09-08T02:45:29.698Z,98247.00
2018-09-08T02:49:46.072Z,98246.00
2018-09-08T02:53:47.214Z,98247.00
2018-09-08T02:57:48.331Z,98243.00
2018-09-08T03:01:49.483Z,98244.00
2018-09-08T03:05:50.597Z,98251.00
2018-09-08T03:09:51.829Z,98242.00
2018-09-08T03:13:52.978Z,98243.00
2018-09-08T03:17:54.112Z,98253.00
2018-09-08T03:21:55.262Z,98249.00
2018-09-08T03:25:56.407Z,98249.00
2018-09-08T03:29:57.535Z,98247.00
2018-09-08T03:33:58.647Z,98257.00
2018-09-08T03:37:59.778Z,98254.00
2018-09-08T03:42:00.882Z,98254.00
2018-09-08T03:46:02.070Z,98255.00
2018-09-08T03:50:03.278Z,98259.00
2018-09-08T03:54:04.416Z,98264.00
2018-09-08T03:58:05.575Z,98262.00
2018-09-08T04:02:06.727Z,98260.00
2018-09-08T04:06:08.882Z,98263.00
2018-09-08T04:10:11.076Z,98279.00
2018-09-08T04:14:13.333Z,98287.00
2018-09-08T04:18:15.608Z,98281.00
2018-09-08T04:22:22.278Z,98285.00
2018-09-08T04:26:24.475Z,98294.00
2018-09-08T04:30:26.656Z,98298.00
2018-09-08T04:34:28.859Z,98302.00
2018-09-08T04:38:31.243Z,98303.00
2018-09-08T04:42:33.524Z,98304.00
2018-09-08T04:46:35.687Z,98313.00
2018-09-08T04:50:37.982Z,98318.00
2018-09-08T04:54:40.160Z,98316.00
2018-09-08T04:58:42.309Z,98319.00
2018-09-08T05:02:44.494Z,98326.00
2018-09-08T05:06:46.659Z,98323.00
2018-09-08T05:10:48.847Z,98336.00
2018-09-08T05:14:51.028Z,98335.00
2018-09-08T05:18:53.189Z,98334.00
2018-09-08T05:22:55.608Z,98339.00
2018-09-08T05:26:57.862Z,98332.00
2018-09-08T05:31:00.022Z,98345.00
2018-09-08T05:35:02.245Z,98344.00
2018-09-08T05:39:05.588Z,98350.00
2018-09-08T05:43:07.832Z,98348.00
2018-09-08T05:47:10.243Z,98353.00
2018-09-08T05:51:12.481Z,98354.00
2018-09-08T05:55:14.735Z,98360.00
2018-09-08T05:59:17.015Z,98364.00
2018-09-08T06:03:19.218Z,98357.00
2018-09-08T06:07:21.371Z,98358.00
2018-09-08T06:11:23.763Z,98365.00
2018-09-08T06:15:25.943Z,98360.00
2018-09-08T06:19:28.187Z,98356.00
2018-09-08T06:23:30.345Z,98359.00
2018-09-08T06:27:32.506Z,98355.00
2018-09-08T06:31:34.753Z,98360.00
2018-09-08T06:35:36.905Z,98354.00
2018-09-08T06:39:39.062Z,98360.00
2018-09-08T06:43:41.247Z,98356.00
2018-09-08T06:47:43.442Z,98368.00
2018-09-08T06:51:45.620Z,98357.00
2018-09-08T06:55:47.846Z,98356.00
2018-09-08T06:59:49.999Z,98363.00
2018-09-08T07:03:52.186Z,98369.00
2018-09-08T07:07:54.515Z,98366.00
2018-09-08T07:11:56.834Z,98369.00
2018-09-08T07:15:59.020Z,98369.00
2018-09-08T07:20:01.194Z,98379.00
2018-09-08T07:24:03.379Z,98373.00
2018-09-08T07:28:05.603Z,98383.00
2018-09-08T07:32:07.767Z,98394.00
2018-09-08T07:36:09.966Z,98401.00
2018-09-08T07:40:12.220Z,98393.00
2018-09-08T07:44:14.430Z,98394.00
2018-09-08T07:48:16.670Z,98399.00
2018-09-08T07:52:19.468Z,98402.00
2018-09-08T07:56:21.691Z,98397.00
2018-09-08T08:00:23.922Z,98405.00
2018-09-08T08:04:26.093Z,98392.00
2018-09-08T08:08:28.306Z,98400.00
2018-09-08T08:12:31.049Z,98410.00
2018-09-08T08:16:33.315Z,98416.00
2018-09-08T08:20:35.579Z,98402.00
2018-09-08T08:24:37.780Z,98407.00
2018-09-08T08:28:39.977Z,98409.00
2018-09-08T08:32:42.372Z,98412.00
2018-09-08T08:36:44.780Z,98405.00
2018-09-08T08:40:46.982Z,98411.00
2018-09-08T08:44:49.237Z,98403.00
2018-09-08T08:48:51.475Z,98406.00
2018-09-08T08:53:05.104Z,98405.00
2018-09-08T08:57:17.058Z,98413.00
2018-09-08T09:01:19.353Z,98418.00
2018-09-08T09:05:21.748Z,98427.00
2018-09-08T09:09:23.931Z,98411.00
2018-09-08T09:13:26.176Z,98399.00
2018-09-08T09:17:28.564Z,98406.00
2018-09-08T09:22:45.043Z,98402.00
2018-09-08T09:26:47.792Z,98393.00
2018-09-08T09:30:49.971Z,98375.00
2018-09-08T09:34:52.175Z,98380.00
2018-09-08T09:38:54.334Z,98394.00
2018-09-08T09:42:56.505Z,98387.00
2018-09-08T09:46:58.696Z,98384.00
2018-09-08T09:51:00.923Z,98386.00
2018-09-08T09:55:03.193Z,98391.00
2018-09-08T09:59:05.398Z,98378.00
2018-09-08T10:03:07.649Z,98381.00
2018-09-08T10:07:10.868Z,98378.00
2018-09-08T10:11:13.105Z,98389.00
2018-09-08T10:15:15.341Z,98391.00
2018-09-08T10:19:17.540Z,98380.00
2018-09-08T10:23:19.874Z,98389.00
2018-09-08T10:27:22.021Z,98378.00
2018-09-08T10:31:24.257Z,98377.00
2018-09-08T10:35:26.472Z,98369.00
2018-09-08T10:39:28.658Z,98368.00
2018-09-08T10:43:31.179Z,98362.00
2018-09-08T10:47:33.467Z,98369.00
2018-09-08T10:52:45.741Z,98349.00
2018-09-08T10:56:48.007Z,98355.00
2018-09-08T11:00:50.219Z,98345.00
2018-09-08T11:04:52.419Z,98347.00
2018-09-08T11:08:54.558Z,98338.00
2018-09-08T11:12:56.794Z,98345.00
2018-09-08T11:16:59.043Z,98349.00
2018-09-08T11:21:01.244Z,98346.00
2018-09-08T11:25:04.449Z,98354.00
2018-09-08T11:29:06.696Z,98349.00
2018-09-08T11:33:08.973Z,98351.00
2018-09-08T11:37:11.156Z,98357.00
2018-09-08T11:41:13.379Z,98355.00
2018-09-08T11:45:15.956Z,98353.00
2018-09-08T11:49:18.876Z,98355.00
2018-09-08T11:53:21.033Z,98350.00
2018-09-08T11:57:23.277Z,98353.00
2018-09-08T12:01:25.588Z,98351.00
2018-09-08T12:05:28.107Z,98358.00
2018-09-08T12:09:30.339Z,98359.00
2018-09-08T12:13:32.525Z,98352.00
2018-09-08T12:17:34.688Z,98349.00
2018-09-08T12:21:36.839Z,98339.00
2018-09-08T12:25:39.765Z,98338.00
2018-09-08T12:29:42.356Z,98327.00
2018-09-08T12:33:45.268Z,98335.00
2018-09-08T12:37:47.461Z,98317.00
2018-09-08T12:41:49.634Z,98335.00
2018-09-08T12:45:51.853Z,98322.00
2018-09-08T12:49:54.044Z,98322.00
2018-09-08T12:53:56.263Z,98312.00
2018-09-08T12:57:58.460Z,98322.00
2018-09-08T13:02:00.578Z,98333.00
2018-09-08T13:06:02.783Z,98336.00
2018-09-08T13:10:05.003Z,98335.00
2018-09-08T13:14:07.259Z,98330.00
2018-09-08T13:18:09.400Z,98319.00
2018-09-08T13:22:11.667Z,98313.00
2018-09-08T13:26:13.837Z,98308.00
2018-09-08T13:30:16.136Z,98305.00
2018-09-08T13:34:18.351Z,98310.00
2018-09-08T13:38:20.538Z,98308.00
2018-09-08T13:42:32.364Z,98309.00
2018-09-08T13:46:34.624Z,98308.00
2018-09-08T13:50:36.800Z,98311.00
2018-09-08T13:54:39.000Z,98310.00
2018-09-08T13:58:41.975Z,98307.00
2018-09-08T14:02:44.169Z,98311.00
2018-09-08T14:06:46.355Z,98308.00
2018-09-08T14:10:48.606Z,98308.00
2018-09-08T14:14:50.935Z,98312.00
2018-09-08T14:18:53.216Z,98303.00
2018-09-08T14:22:55.441Z,98303.00
2018-09-08T14:26:57.629Z,98304.00
2018-09-08T14:30:59.900Z,98306.00
2018-09-08T14:35:02.383Z,98306.00
2018-09-08T14:39:06.392Z,98286.00
2018-09-08T14:43:09.175Z,98292.00
2018-09-08T14:47:11.389Z,98297.00
2018-09-08T14:51:13.566Z,98296.00
2018-09-08T14:55:15.750Z,98297.00
2018-09-08T14:59:17.927Z,98301.00
2018-09-08T15:03:20.114Z,98300.00
2018-09-08T15:07:22.277Z,98300.00
2018-09-08T15:11:24.470Z,98298.00
2018-09-08T15:15:26.659Z,98297.00
2018-09-08T15:19:28.867Z,98300.00
2018-09-08T15:23:31.024Z,98299.00
2018-09-08T15:27:33.186Z,98303.00
2018-09-08T15:31:35.569Z,98306.00
2018-09-08T15:35:37.904Z,98295.00
2018-09-08T15:39:40.119Z,98293.00
2018-09-08T15:43:42.328Z,98295.00
2018-09-08T15:47:44.832Z,98303.00
2018-09-08T15:51:47.020Z,98304.00
2018-09-08T15:55:49.191Z,98302.00
2018-09-08T15:59:51.364Z,98303.00
2018-09-08T16:05:23.112Z,98295.00
2018-09-08T16:09:25.378Z,98298.00
2018-09-08T16:13:27.573Z,98297.00
2018-09-08T16:17:29.754Z,98299.00
2018-09-08T16:21:31.973Z,98303.00
2018-09-08T16:25:34.461Z,98300.00
2018-09-08T16:29:37.016Z,98302.00
2018-09-08T16:33:40.218Z,98300.00
2018-09-08T16:37:42.393Z,98294.00
2018-09-08T16:41:44.570Z,98298.00
2018-09-08T16:45:46.770Z,98291.00
2018-09-08T16:49:49.095Z,98286.00
2018-09-08T16:53:51.253Z,98293.00
2018-09-08T16:57:55.641Z,98293.00
2018-09-08T17:01:58.226Z,98296.00
2018-09-08T17:06:01.455Z,98290.00
2018-09-08T17:10:03.732Z,98295.00
2018-09-08T17:14:06.022Z,98295.00
2018-09-08T17:18:08.262Z,98292.00
2018-09-08T17:22:10.455Z,98290.00
2018-09-08T17:26:12.640Z,98304.00
2018-09-08T17:30:14.872Z,98299.00
2018-09-08T17:34:17.073Z,98302.00
2018-09-08T17:38:19.271Z,98302.00
2018-09-08T17:42:21.499Z,98298.00
2018-09-08T17:46:23.733Z,98293.00
2018-09-08T17:50:35.429Z,98295.00
2018-09-08T17:54:37.652Z,98289.00
2018-09-08T17:58:39.802Z,98290.00
2018-09-08T18:02:42.483Z,98296.00
2018-09-08T18:06:44.780Z,98300.00
2018-09-08T18:10:47.520Z,98307.00
2018-09-08T18:14:49.729Z,98309.00
2018-09-08T18:18:52.001Z,98303.00
2018-09-08T18:22:54.210Z,98307.00
2018-09-08T18:26:56.426Z,98307.00
2018-09-08T18:30:58.672Z,98318.00
2018-09-08T18:35:02.704Z,98315.00
2018-09-08T18:39:05.225Z,98318.00
2018-09-08T18:43:07.644Z,98316.00
2018-09-08T18:47:09.886Z,98326.00
2018-09-08T18:51:12.101Z,98326.00
2018-09-08T18:55:14.338Z,98324.00
2018-09-08T18:59:16.571Z,98317.00
2018-09-08T19:03:18.766Z,98321.00
2018-09-08T19:07:21.103Z,98322.00
2018-09-08T19:11:23.335Z,98323.00
2018-09-08T19:15:25.577Z,98322.00
2018-09-08T19:19:27.776Z,98327.00
2018-09-08T19:23:30.027Z,98326.00
2018-09-08T19:27:32.278Z,98319.00
2018-09-08T19:31:34.559Z,98315.00
2018-09-08T19:35:39.384Z,98313.00
2018-09-08T19:39:41.673Z,98317.00
2018-09-08T19:43:43.928Z,98317.00
2018-09-08T19:47:51.845Z,98324.00
2018-09-08T19:51:54.096Z,98318.00
2018-09-08T19:55:56.266Z,98322.00
2018-09-08T20:08:20.175Z,98338.00
2018-09-08T20:12:22.385Z,98333.00
2018-09-08T20:16:24.632Z,98332.00
2018-09-08T20:20:26.913Z,98335.00
2018-09-08T20:24:29.098Z,98325.00
2018-09-08T20:28:31.323Z,98329.00
2018-09-08T20:32:33.573Z,98323.00
2018-09-08T20:36:35.825Z,98322.00
2018-09-08T20:40:38.053Z,98330.00
2018-09-08T20:44:40.231Z,98329.00
2018-09-08T20:48:42.498Z,98321.00
2018-09-08T20:52:44.726Z,98318.00
2018-09-08T20:56:46.959Z,98314.00
2018-09-08T21:00:49.155Z,98313.00
2018-09-08T21:04:51.346Z,98307.00
2018-09-08T21:08:53.544Z,98305.00
2018-09-08T21:12:55.746Z,98316.00
2018-09-08T21:16:57.879Z,98318.00
2018-09-08T21:21:00.150Z,98324.00
2018-09-08T21:25:02.659Z,98324.00
2018-09-08T21:29:05.208Z,98334.00
2018-09-08T21:33:07.398Z,98323.00
2018-09-08T21:37:09.653Z,98314.00
2018-09-08T21:41:11.911Z,98333.00
2018-09-08T21:45:14.145Z,98341.00
2018-09-08T21:49:16.391Z,98334.00
2018-09-08T21:53:18.696Z,98324.00
2018-09-08T21:57:20.876Z,98329.00
2018-09-08T22:01:24.574Z,98335.00
2018-09-08T22:05:26.887Z,98350.00
2018-09-08T22:09:29.084Z,98353.00
2018-09-08T22:13:31.504Z,98347.00
2018-09-08T22:17:33.672Z,98343.00
2018-09-08T22:21:35.867Z,98335.00
2018-09-08T22:25:38.039Z,98331.00
2018-09-08T22:29:40.209Z,98331.00
2018-09-08T22:33:42.386Z,98342.00
2018-09-08T22:37:44.788Z,98338.00
2018-09-08T22:41:46.976Z,98333.00
2018-09-08T22:45:49.160Z,98338.00
2018-09-08T22:49:51.367Z,98331.00
2018-09-08T22:53:53.608Z,98328.00
2018-09-08T22:57:55.816Z,98330.00
2018-09-08T23:01:58.027Z,98342.00
2018-09-08T23:06:00.218Z,98334.00
2018-09-08T23:10:02.867Z,98342.00
2018-09-08T23:14:05.439Z,98347.00
2018-09-08T23:18:07.601Z,98354.00
2018-09-08T23:22:09.821Z,98348.00
2018-09-08T23:26:12.235Z,98352.00
2018-09-08T23:30:14.379Z,98341.00
2018-09-08T23:34:16.825Z,98336.00
2018-09-08T23:38:18.984Z,98339.00
2018-09-08T23:42:21.163Z,98345.00
2018-09-08T23:46:23.335Z,98336.00
2018-09-08T23:50:25.617Z,98340.00
2018-09-08T23:54:27.703Z,98337.00
2018-09-08T23:58:29.870Z,98335.00
